createdAt,value
2022-08-17T00:01:51.421Z,50.03
2022-08-17T00:04:19.978Z,50.24
2022-08-17T00:06:49.093Z,50.16
2022-08-17T00:09:18.809Z,49.83
2022-08-17T00:12:41.620Z,50.67
2022-08-17T00:14:35.093Z,50.78
2022-08-17T00:17:03.958Z,50.60
2022-08-17T00:19:32.815Z,50.61
2022-08-17T00:22:34.097Z,50.09
2022-08-17T00:24:50.718Z,50.32
2022-08-17T00:27:18.747Z,50.47
2022-08-17T00:29:46.933Z,50.39
2022-08-17T00:33:14.307Z,51.09
2022-08-17T00:35:02.382Z,50.84
2022-08-17T00:37:30.051Z,50.94
2022-08-17T00:39:58.043Z,51.19
2022-08-17T00:42:30.782Z,51.10
2022-08-17T00:44:58.841Z,51.16
2022-08-17T00:47:26.624Z,51.33
2022-08-17T00:49:54.293Z,51.39
2022-08-17T00:52:23.165Z,51.52
2022-08-17T00:54:52.367Z,51.49
2022-08-17T00:57:20.180Z,51.48
2022-08-17T00:59:55.950Z,51.30
2022-08-17T01:02:35.005Z,51.79
2022-08-17T01:05:19.035Z,51.75
2022-08-17T01:07:46.967Z,51.99
2022-08-17T01:10:57.103Z,51.29
2022-08-17T01:13:03.449Z,51.39
2022-08-17T01:15:31.515Z,51.62
2022-08-17T01:18:00.220Z,51.72
2022-08-17T01:20:27.910Z,51.53
2022-08-17T01:22:55.612Z,51.43
2022-08-17T01:25:23.467Z,51.68
2022-08-17T01:27:51.793Z,51.82
2022-08-17T01:30:56.652Z,52.01
2022-08-17T01:33:11.538Z,52.02
2022-08-17T01:35:39.202Z,52.14
2022-08-17T01:38:06.910Z,52.39
2022-08-17T01:40:35.324Z,52.95
2022-08-17T01:43:03.033Z,52.65
2022-08-17T01:45:32.248Z,53.15
2022-08-17T01:47:59.902Z,53.10
2022-08-17T01:50:27.854Z,52.85
2022-08-17T01:52:55.579Z,53.34
2022-08-17T01:55:27.239Z,52.94
2022-08-17T01:57:55.221Z,53.24
2022-08-17T02:00:23.191Z,53.38
2022-08-17T02:02:50.939Z,53.05
2022-08-17T02:05:18.725Z,53.49
2022-08-17T02:07:47.955Z,52.92
2022-08-17T02:10:33.643Z,52.92
2022-08-17T02:13:02.350Z,53.07
2022-08-17T02:15:30.099Z,53.21
2022-08-17T02:17:57.789Z,53.37
2022-08-17T02:20:41.684Z,53.25
2022-08-17T02:23:10.610Z,53.57
2022-08-17T02:25:38.288Z,54.03
2022-08-17T02:28:06.183Z,53.77
2022-08-17T02:31:01.582Z,53.89
2022-08-17T02:33:21.776Z,53.28
2022-08-17T02:35:49.832Z,54.26
2022-08-17T02:38:17.545Z,53.82
2022-08-17T02:40:45.679Z,54.36
2022-08-17T02:43:14.735Z,54.46
2022-08-17T02:45:42.539Z,53.82
2022-08-17T02:48:10.274Z,54.41
2022-08-17T02:50:38.636Z,54.75
2022-08-17T02:53:06.485Z,54.74
2022-08-17T02:55:35.013Z,54.02
2022-08-17T02:58:03.864Z,54.41
2022-08-17T03:00:34.083Z,54.27
2022-08-17T03:03:01.818Z,54.72
2022-08-17T03:05:29.416Z,54.63
2022-08-17T03:07:57.171Z,54.55
2022-08-17T03:10:25.700Z,54.80
2022-08-17T03:12:53.376Z,54.75
2022-08-17T03:15:21.030Z,54.84
2022-08-17T03:17:48.733Z,54.60
2022-08-17T03:20:17.366Z,54.99
2022-08-17T03:22:47.891Z,54.63
2022-08-17T03:25:22.595Z,54.77
2022-08-17T03:27:51.525Z,54.57
2022-08-17T03:30:19.724Z,54.34
2022-08-17T03:32:48.928Z,54.17
2022-08-17T03:35:16.523Z,54.35
2022-08-17T03:37:46.508Z,54.19
2022-08-17T03:40:14.504Z,54.22
2022-08-17T03:42:42.347Z,54.08
2022-08-17T03:45:09.941Z,53.68
2022-08-17T03:47:55.148Z,54.76
2022-08-17T03:50:40.017Z,54.59
2022-08-17T03:53:25.321Z,54.74
2022-08-17T03:56:10.165Z,54.85
2022-08-17T03:58:38.193Z,55.24
2022-08-17T04:01:06.183Z,55.67
2022-08-17T04:03:33.975Z,55.59
2022-08-17T04:06:02.397Z,54.89
2022-08-17T04:08:30.114Z,55.06
2022-08-17T04:10:58.007Z,55.36
2022-08-17T04:13:25.777Z,55.48
2022-08-17T04:15:53.413Z,55.25
2022-08-17T04:18:21.069Z,55.33
2022-08-17T04:20:48.804Z,55.34
2022-08-17T04:23:16.507Z,55.36
2022-08-17T04:25:45.174Z,55.05
2022-08-17T04:28:16.005Z,55.11
2022-08-17T04:30:45.317Z,55.54
2022-08-17T04:33:14.256Z,55.14
2022-08-17T04:35:42.131Z,54.73
2022-08-17T04:38:09.832Z,55.16
2022-08-17T04:40:55.398Z,55.43
2022-08-17T04:43:23.073Z,55.18
2022-08-17T04:45:55.023Z,55.11
2022-08-17T04:48:33.400Z,55.16
2022-08-17T04:51:03.831Z,54.93
2022-08-17T04:53:31.502Z,54.66
2022-08-17T04:55:59.460Z,54.62
2022-08-17T04:58:27.475Z,54.70
2022-08-17T05:00:55.164Z,55.07
2022-08-17T05:03:22.893Z,54.44
2022-08-17T05:05:50.550Z,54.84
2022-08-17T05:08:18.286Z,54.69
2022-08-17T05:10:46.160Z,55.11
2022-08-17T05:13:15.587Z,54.90
2022-08-17T05:15:44.856Z,55.18
2022-08-17T05:18:13.047Z,54.87
2022-08-17T05:20:40.942Z,54.99
2022-08-17T05:23:08.590Z,55.23
2022-08-17T05:25:36.302Z,54.91
2022-08-17T05:28:05.140Z,54.70
2022-08-17T05:30:34.238Z,54.95
2022-08-17T05:33:01.948Z,54.59
2022-08-17T05:35:29.601Z,54.44
2022-08-17T05:37:57.299Z,54.77
2022-08-17T05:40:26.066Z,54.45
2022-08-17T05:42:53.786Z,54.09
2022-08-17T05:45:46.089Z,53.89
2022-08-17T05:48:10.459Z,54.19
2022-08-17T05:50:38.374Z,53.58
2022-08-17T05:53:06.498Z,53.96
2022-08-17T05:55:34.479Z,53.85
2022-08-17T05:58:02.506Z,53.54
2022-08-17T06:00:31.251Z,53.00
2022-08-17T06:02:58.962Z,52.80
2022-08-17T06:05:26.680Z,52.29
2022-08-17T06:07:54.648Z,52.52
2022-08-17T06:10:22.299Z,52.15
2022-08-17T06:12:50.201Z,52.22
2022-08-17T06:15:19.561Z,51.66
2022-08-17T06:17:47.162Z,51.35
2022-08-17T06:20:14.899Z,51.47
2022-08-17T06:22:42.637Z,51.54
2022-08-17T06:25:10.952Z,50.97
2022-08-17T06:27:38.695Z,51.12
2022-08-17T06:30:09.357Z,51.08
2022-08-17T06:32:38.248Z,51.23
2022-08-17T06:35:07.124Z,50.96
2022-08-17T06:37:34.826Z,50.77
2022-08-17T06:40:02.993Z,50.74
2022-08-17T06:43:02.190Z,50.47
2022-08-17T06:45:18.413Z,49.85
2022-08-17T06:47:47.673Z,50.35
2022-08-17T06:50:15.900Z,49.36
2022-08-17T06:52:56.058Z,49.70
2022-08-17T06:55:23.907Z,49.15
2022-08-17T06:57:51.677Z,49.26
2022-08-17T07:00:19.395Z,49.48
2022-08-17T07:02:53.068Z,49.39
2022-08-17T07:05:21.125Z,49.22
2022-08-17T07:08:04.989Z,48.95
2022-08-17T07:10:32.738Z,48.97
2022-08-17T07:13:00.397Z,48.96
2022-08-17T07:15:28.127Z,49.16
2022-08-17T07:17:56.340Z,48.72
2022-08-17T07:20:24.078Z,48.59
2022-08-17T07:22:59.638Z,49.09
2022-08-17T07:25:30.811Z,48.73
2022-08-17T07:27:59.921Z,47.92
2022-08-17T07:30:27.588Z,48.13
2022-08-17T07:32:57.549Z,47.47
2022-08-17T07:35:37.690Z,47.39
2022-08-17T07:38:25.506Z,47.00
2022-08-17T07:40:57.804Z,45.89
2022-08-17T07:43:25.792Z,46.05
2022-08-17T07:46:11.349Z,45.81
2022-08-17T07:48:39.126Z,45.83
2022-08-17T07:51:06.850Z,45.36
2022-08-17T07:53:34.757Z,45.31
2022-08-17T07:56:02.715Z,44.99
2022-08-17T07:58:30.365Z,45.10
2022-08-17T08:00:59.268Z,44.77
2022-08-17T08:03:31.990Z,44.97
2022-08-17T08:06:00.465Z,44.20
2022-08-17T08:08:28.643Z,44.46
2022-08-17T08:10:56.360Z,44.42
2022-08-17T08:13:24.064Z,43.93
2022-08-17T08:15:53.458Z,44.13
2022-08-17T08:18:53.286Z,43.86
2022-08-17T08:21:10.263Z,43.93
2022-08-17T08:23:38.483Z,43.21
2022-08-17T08:26:06.519Z,43.19
2022-08-17T08:28:35.867Z,42.65
2022-08-17T08:31:03.811Z,42.51
2022-08-17T08:33:32.174Z,42.62
2022-08-17T08:35:59.875Z,42.70
2022-08-17T08:38:28.260Z,41.69
2022-08-17T08:40:56.307Z,41.55
2022-08-17T08:43:24.640Z,41.26
2022-08-17T08:45:52.523Z,40.68
2022-08-17T08:48:23.014Z,40.88
2022-08-17T08:51:08.603Z,40.20
2022-08-17T08:53:39.262Z,40.02
2022-08-17T08:56:07.178Z,40.24
2022-08-17T08:58:41.330Z,39.86
2022-08-17T09:01:16.710Z,40.20
2022-08-17T09:03:52.918Z,39.92
2022-08-17T09:06:33.357Z,39.82
2022-08-17T09:09:07.343Z,40.08
2022-08-17T09:11:35.748Z,40.17
2022-08-17T09:14:28.598Z,39.98
2022-08-17T09:16:57.114Z,39.74
2022-08-17T09:19:30.599Z,39.43
2022-08-17T09:21:58.272Z,39.60
2022-08-17T09:24:26.958Z,39.75
2022-08-17T09:26:55.673Z,40.10
2022-08-17T09:29:25.572Z,40.64
2022-08-17T09:31:53.580Z,41.05
2022-08-17T09:34:21.516Z,41.20
2022-08-17T09:36:56.244Z,41.52
2022-08-17T09:39:23.894Z,41.71
2022-08-17T09:41:53.503Z,41.99
2022-08-17T09:44:24.026Z,42.00
2022-08-17T09:46:51.958Z,42.70
2022-08-17T09:49:24.633Z,42.68
2022-08-17T09:51:53.221Z,42.89
2022-08-17T09:54:38.525Z,43.06
2022-08-17T09:57:28.633Z,43.53
2022-08-17T09:59:55.499Z,43.52
2022-08-17T10:02:23.198Z,44.18
2022-08-17T10:04:50.817Z,43.99
2022-08-17T10:07:18.908Z,44.07
2022-08-17T10:09:46.635Z,43.71
2022-08-17T10:12:21.588Z,44.58
2022-08-17T10:14:57.641Z,44.38
2022-08-17T10:17:36.510Z,44.00
2022-08-17T10:20:04.186Z,44.36
2022-08-17T10:22:53.195Z,44.69
2022-08-17T10:25:54.016Z,43.75
2022-08-17T10:28:28.940Z,44.57
2022-08-17T10:31:16.536Z,44.19
2022-08-17T10:33:44.726Z,44.64
2022-08-17T10:36:12.461Z,44.34
2022-08-17T10:38:40.207Z,44.43
2022-08-17T10:41:07.868Z,44.55
2022-08-17T10:43:35.871Z,44.66
2022-08-17T10:46:21.308Z,44.67
2022-08-17T10:48:51.781Z,44.87
2022-08-17T10:51:20.709Z,44.57
2022-08-17T10:53:48.570Z,44.33
2022-08-17T10:56:17.713Z,44.72
2022-08-17T10:58:45.841Z,44.50
2022-08-17T11:01:13.515Z,45.09
2022-08-17T11:03:41.666Z,44.71
2022-08-17T11:06:12.856Z,45.37
2022-08-17T11:08:40.728Z,45.24
2022-08-17T11:11:08.718Z,45.82
2022-08-17T11:13:37.809Z,45.55
2022-08-17T11:16:08.541Z,45.64
2022-08-17T11:18:36.714Z,45.62
2022-08-17T11:21:04.683Z,46.09
2022-08-17T11:23:33.223Z,45.65
2022-08-17T11:26:08.346Z,45.84
2022-08-17T11:28:36.072Z,46.26
2022-08-17T11:31:04.118Z,46.10
2022-08-17T11:33:36.912Z,46.15
2022-08-17T11:36:06.594Z,46.30
2022-08-17T11:38:34.237Z,46.54
2022-08-17T11:41:02.661Z,46.43
2022-08-17T11:43:32.237Z,45.54
2022-08-17T11:46:01.466Z,46.03
2022-08-17T11:48:46.648Z,46.26
2022-08-17T11:51:34.930Z,45.37
2022-08-17T11:54:30.974Z,45.34
2022-08-17T11:56:50.453Z,44.07
2022-08-17T11:59:19.861Z,43.86
2022-08-17T12:01:47.567Z,43.94
2022-08-17T12:04:15.300Z,44.35
2022-08-17T12:06:43.146Z,44.48
2022-08-17T12:09:10.961Z,44.01
2022-08-17T12:11:58.665Z,44.03
2022-08-17T12:14:45.022Z,42.55
2022-08-17T12:17:14.416Z,42.10
2022-08-17T12:19:57.341Z,41.08
2022-08-17T12:22:26.661Z,40.02
2022-08-17T12:24:54.830Z,38.81
2022-08-17T12:28:02.064Z,38.26
2022-08-17T12:30:10.676Z,38.64
2022-08-17T12:32:40.807Z,38.10
2022-08-17T12:35:08.939Z,37.35
2022-08-17T12:37:36.888Z,37.46
2022-08-17T12:40:04.732Z,38.69
2022-08-17T12:42:33.167Z,38.85
2022-08-17T12:45:01.193Z,39.63
2022-08-17T12:47:30.220Z,40.10
2022-08-17T12:49:59.493Z,39.91
2022-08-17T12:52:27.228Z,39.48
2022-08-17T12:54:55.145Z,38.24
2022-08-17T12:57:22.831Z,37.49
2022-08-17T12:59:50.465Z,37.84
2022-08-17T13:02:18.188Z,37.83
2022-08-17T13:04:45.806Z,37.42
2022-08-17T13:07:13.864Z,37.61
2022-08-17T13:09:41.805Z,36.49
2022-08-17T13:12:09.566Z,36.30
2022-08-17T13:14:37.274Z,36.70
2022-08-17T13:17:11.034Z,36.61
2022-08-17T13:19:48.302Z,36.83
2022-08-17T13:22:16.111Z,36.53
2022-08-17T13:24:44.195Z,36.69
2022-08-17T13:27:11.967Z,36.63
2022-08-17T13:29:39.974Z,36.50
2022-08-17T13:32:13.000Z,36.59
2022-08-17T13:35:12.959Z,35.89
2022-08-17T13:37:30.426Z,36.42
2022-08-17T13:39:58.178Z,36.75
2022-08-17T13:42:25.937Z,37.15
2022-08-17T13:44:53.942Z,37.63
2022-08-17T13:47:22.197Z,37.98
2022-08-17T13:49:49.885Z,38.50
2022-08-17T13:52:19.727Z,38.29
2022-08-17T13:54:55.612Z,38.95
2022-08-17T13:57:23.697Z,40.02
2022-08-17T13:59:55.158Z,40.36
2022-08-17T14:02:23.476Z,41.43
2022-08-17T14:04:56.385Z,42.47
2022-08-17T14:07:24.143Z,42.71
2022-08-17T14:09:52.151Z,43.27
2022-08-17T14:12:19.808Z,43.20
2022-08-17T14:14:47.510Z,43.56
2022-08-17T14:17:15.306Z,43.57
2022-08-17T14:19:43.239Z,44.39
2022-08-17T14:22:11.822Z,44.42
2022-08-17T14:24:44.697Z,44.99
2022-08-17T14:27:13.169Z,45.09
2022-08-17T14:29:41.459Z,45.54
2022-08-17T14:32:09.292Z,45.65
2022-08-17T14:34:36.981Z,46.31
2022-08-17T14:37:05.971Z,46.22
2022-08-17T14:39:34.067Z,46.63
2022-08-17T14:42:01.843Z,47.08
2022-08-17T14:44:30.242Z,46.77
2022-08-17T14:46:57.944Z,46.83
2022-08-17T14:49:26.160Z,46.84
2022-08-17T14:51:54.220Z,46.96
2022-08-17T14:54:34.362Z,46.69
2022-08-17T14:57:22.454Z,46.57
2022-08-17T14:59:54.228Z,47.25
2022-08-17T15:02:23.085Z,46.94
2022-08-17T15:04:58.056Z,47.45
2022-08-17T15:07:30.417Z,47.35
2022-08-17T15:10:00.487Z,47.36
2022-08-17T15:12:32.403Z,47.43
2022-08-17T15:15:01.042Z,47.89
2022-08-17T15:17:43.937Z,48.26
2022-08-17T15:20:15.020Z,49.77
2022-08-17T15:22:43.386Z,49.99
2022-08-17T15:25:11.246Z,50.92
2022-08-17T15:27:39.233Z,50.50
2022-08-17T15:30:07.413Z,50.90
2022-08-17T15:32:35.202Z,50.55
2022-08-17T15:35:03.037Z,50.85
2022-08-17T15:37:32.012Z,50.99
2022-08-17T15:40:00.849Z,50.90
2022-08-17T15:42:29.398Z,50.58
2022-08-17T15:44:57.220Z,50.84
2022-08-17T15:47:25.302Z,51.23
2022-08-17T15:49:57.935Z,51.26
2022-08-17T15:52:27.706Z,50.91
2022-08-17T15:54:55.364Z,50.73
2022-08-17T15:57:24.224Z,50.88
2022-08-17T15:59:55.104Z,50.38
2022-08-17T16:03:14.979Z,50.39
2022-08-17T16:05:14.582Z,49.32
2022-08-17T16:07:45.195Z,47.90
2022-08-17T16:10:18.308Z,45.92
2022-08-17T16:12:46.920Z,44.47
2022-08-17T16:15:14.857Z,43.10
2022-08-17T16:17:42.794Z,41.84
2022-08-17T16:20:19.928Z,41.61
2022-08-17T16:22:48.657Z,41.00
2022-08-17T16:25:16.786Z,40.43
2022-08-17T16:27:44.584Z,40.01
2022-08-17T16:30:16.935Z,41.07
2022-08-17T16:32:45.201Z,42.50
2022-08-17T16:35:14.442Z,43.50
2022-08-17T16:37:45.462Z,44.84
2022-08-17T16:40:13.688Z,45.27
2022-08-17T16:42:41.684Z,46.28
2022-08-17T16:45:09.929Z,46.97
2022-08-17T16:47:37.780Z,47.21
2022-08-17T16:50:05.480Z,47.38
2022-08-17T16:52:33.758Z,48.11
2022-08-17T16:55:01.716Z,48.18
2022-08-17T16:57:29.933Z,47.84
2022-08-17T16:59:57.637Z,48.78
2022-08-17T17:02:25.355Z,48.77
2022-08-17T17:04:53.094Z,48.82
2022-08-17T17:07:20.827Z,49.35
2022-08-17T17:09:52.674Z,49.53
2022-08-17T17:12:34.973Z,49.60
2022-08-17T17:15:08.185Z,49.54
2022-08-17T17:17:36.261Z,49.85
2022-08-17T17:20:04.027Z,50.25
2022-08-17T17:22:31.740Z,49.91
2022-08-17T17:24:59.656Z,50.30
2022-08-17T17:27:29.669Z,50.20
2022-08-17T17:29:57.423Z,50.26
2022-08-17T17:32:25.207Z,50.26
2022-08-17T17:34:52.873Z,50.79
2022-08-17T17:37:20.600Z,50.76
2022-08-17T17:39:49.190Z,51.14
2022-08-17T17:42:20.292Z,51.61
2022-08-17T17:44:48.115Z,51.47
2022-08-17T17:47:17.089Z,51.61
2022-08-17T17:49:45.141Z,51.84
2022-08-17T17:52:18.445Z,51.84
2022-08-17T17:54:46.972Z,52.06
2022-08-17T17:57:14.657Z,51.97
2022-08-17T17:59:44.216Z,52.69
2022-08-17T18:02:12.202Z,52.45
2022-08-17T18:04:40.932Z,53.03
2022-08-17T18:07:10.082Z,52.40
2022-08-17T18:09:39.145Z,53.25
2022-08-17T18:12:08.998Z,53.19
2022-08-17T18:14:37.081Z,52.92
2022-08-17T18:17:04.733Z,53.41
2022-08-17T18:19:32.787Z,53.94
2022-08-17T18:22:00.920Z,53.53
2022-08-17T18:24:28.661Z,53.36
2022-08-17T18:26:56.533Z,53.88
2022-08-17T18:29:24.999Z,54.08
2022-08-17T18:31:52.822Z,53.93
2022-08-17T18:34:45.771Z,54.64
2022-08-17T18:37:11.271Z,54.02
2022-08-17T18:39:44.255Z,54.31
2022-08-17T18:42:13.147Z,54.79
2022-08-17T18:44:40.863Z,54.79
2022-08-17T18:47:08.597Z,55.29
2022-08-17T18:49:36.652Z,55.47
2022-08-17T18:52:04.369Z,54.86
2022-08-17T18:54:32.536Z,55.03
2022-08-17T18:57:00.321Z,55.74
2022-08-17T18:59:28.464Z,55.60
2022-08-17T19:01:58.483Z,55.37
2022-08-17T19:04:26.994Z,55.54
2022-08-17T19:07:00.483Z,55.90
2022-08-17T19:09:28.508Z,55.97
2022-08-17T19:11:56.187Z,55.73
2022-08-17T19:14:25.923Z,56.41
2022-08-17T19:16:53.648Z,56.14
2022-08-17T19:19:21.654Z,56.17
2022-08-17T19:21:49.413Z,56.53
2022-08-17T19:24:19.607Z,56.06
2022-08-17T19:26:53.608Z,56.52
2022-08-17T19:29:23.865Z,56.21
2022-08-17T19:31:51.533Z,56.64
2022-08-17T19:34:30.183Z,56.30
2022-08-17T19:37:01.986Z,56.65
2022-08-17T19:39:38.628Z,56.58
2022-08-17T19:42:06.555Z,57.05
2022-08-17T19:44:34.511Z,56.50
2022-08-17T19:47:02.733Z,56.78
2022-08-17T19:49:40.687Z,56.78
2022-08-17T19:52:10.258Z,57.41
2022-08-17T19:54:38.189Z,57.01
2022-08-17T19:57:05.976Z,57.19
2022-08-17T19:59:35.956Z,57.07
2022-08-17T20:02:04.493Z,57.54
2022-08-17T20:04:32.615Z,57.45
2022-08-17T20:07:00.555Z,57.81
2022-08-17T20:09:29.633Z,57.88
2022-08-17T20:12:01.462Z,57.70
2022-08-17T20:14:29.096Z,58.15
2022-08-17T20:17:01.878Z,58.47
2022-08-17T20:19:30.667Z,57.68
2022-08-17T20:21:58.415Z,58.42
2022-08-17T20:24:26.088Z,58.16
2022-08-17T20:26:58.144Z,58.06
2022-08-17T20:29:31.896Z,58.22
2022-08-17T20:32:05.749Z,58.27
2022-08-17T20:34:37.408Z,58.53
2022-08-17T20:37:06.134Z,58.89
2022-08-17T20:39:38.116Z,58.70
2022-08-17T20:42:05.907Z,58.54
2022-08-17T20:44:33.756Z,58.89
2022-08-17T20:47:01.622Z,58.76
2022-08-17T20:49:29.407Z,59.21
2022-08-17T20:52:01.698Z,58.83
2022-08-17T20:54:30.517Z,58.94
2022-08-17T20:56:58.420Z,59.30
2022-08-17T20:59:27.705Z,58.94
2022-08-17T21:01:55.453Z,59.09
2022-08-17T21:04:23.098Z,59.36
2022-08-17T21:06:50.724Z,59.59
2022-08-17T21:09:18.784Z,59.68
2022-08-17T21:12:03.262Z,59.60
2022-08-17T21:14:32.891Z,59.88
2022-08-17T21:17:01.466Z,59.65
2022-08-17T21:19:31.207Z,59.62
2022-08-17T21:21:59.213Z,60.13
2022-08-17T21:24:26.955Z,59.71
2022-08-17T21:26:55.605Z,59.69
2022-08-17T21:29:31.376Z,59.78
2022-08-17T21:32:00.616Z,60.02
2022-08-17T21:34:28.447Z,60.03
2022-08-17T21:36:57.062Z,59.79
2022-08-17T21:39:30.651Z,60.22
2022-08-17T21:42:00.976Z,60.38
2022-08-17T21:44:31.180Z,60.52
2022-08-17T21:46:59.073Z,61.01
2022-08-17T21:49:26.777Z,61.65
2022-08-17T21:51:54.568Z,61.87
2022-08-17T21:54:22.557Z,61.74
2022-08-17T21:56:50.244Z,61.97
2022-08-17T21:59:18.330Z,62.38
2022-08-17T22:01:46.018Z,62.16
2022-08-17T22:04:18.333Z,62.12
2022-08-17T22:06:56.678Z,62.62
2022-08-17T22:09:25.859Z,62.87
2022-08-17T22:11:53.490Z,62.83
2022-08-17T22:14:21.786Z,62.48
2022-08-17T22:16:50.751Z,62.76
2022-08-17T22:19:20.493Z,63.34
2022-08-17T22:21:48.179Z,62.73
2022-08-17T22:24:14.860Z,63.29
2022-08-17T22:26:42.788Z,63.29
2022-08-17T22:29:10.546Z,62.82
2022-08-17T22:31:38.246Z,62.89
2022-08-17T22:34:06.839Z,63.19
2022-08-17T22:36:34.683Z,63.38
2022-08-17T22:39:02.687Z,62.82
2022-08-17T22:41:32.170Z,63.50
2022-08-17T22:44:02.522Z,63.43
2022-08-17T22:46:30.386Z,63.23
2022-08-17T22:48:59.509Z,63.50
2022-08-17T22:51:27.434Z,63.51
2022-08-17T22:54:12.504Z,63.05
2022-08-17T22:56:57.724Z,63.36
2022-08-17T22:59:27.382Z,62.97
2022-08-17T23:01:55.053Z,63.29
2022-08-17T23:04:22.802Z,63.31
2022-08-17T23:06:50.423Z,64.02
2022-08-17T23:09:18.431Z,63.85
2022-08-17T23:11:50.051Z,63.54
2022-08-17T23:14:19.308Z,64.32
2022-08-17T23:16:47.017Z,64.26
2022-08-17T23:19:15.516Z,64.24
2022-08-17T23:21:44.892Z,64.52
2022-08-17T23:24:13.754Z,64.47
2022-08-17T23:26:41.438Z,63.92
2022-08-17T23:29:09.560Z,64.35
2022-08-17T23:31:37.369Z,64.24
2022-08-17T23:34:05.021Z,64.00
2022-08-17T23:36:35.384Z,64.42
2022-08-17T23:39:03.309Z,64.44
2022-08-17T23:41:31.763Z,64.85
2022-08-17T23:43:59.396Z,64.39
2022-08-17T23:46:27.060Z,64.52
2022-08-17T23:48:55.016Z,64.00
2022-08-17T23:51:22.760Z,64.06
2022-08-17T23:53:50.426Z,64.17
2022-08-17T23:56:24.088Z,64.20
2022-08-17T23:58:51.766Z,63.95
